Time;durP1;ratioP1;P1;durP2;ratioP2;P2;SDS_P1;SDS_P2;PMS_P1;PMS_P2;Temp;Humidity;BMP_temperature;BMP_pressure;BME280_temperature;BME280_humidity;BME280_pressure;Samples;Min_cycle;Max_cycle;Signal;HPM_P1;HPM_P2
2023/10/07 00:00:26;;;;;;;6.65;2.65;;;11.10;1.00;;;;;;6270522;22;20382;-65
2023/10/07 00:02:49;;;;;;;9.80;3.30;;;11.10;1.00;;;;;;6271432;22;20368;-66
2023/10/07 00:05:16;;;;;;;11.90;3.90;;;11.20;1.00;;;;;;6243358;22;20388;-65
2023/10/07 00:07:44;;;;;;;8.98;2.70;;;11.20;1.00;;;;;;6270974;22;21193;-65
2023/10/07 00:10:14;;;;;;;10.52;3.30;;;11.10;1.00;;;;;;6270684;22;20380;-65
2023/10/07 00:12:40;;;;;;;10.57;2.80;;;11.10;1.00;;;;;;6270809;22;20443;-65
2023/10/07 00:15:11;;;;;;;12.20;3.88;;;11.10;1.00;;;;;;6270275;22;20388;-65
2023/10/07 00:17:43;;;;;;;10.40;2.70;;;10.90;1.00;;;;;;6270482;22;20344;-65
2023/10/07 00:20:12;;;;;;;8.43;3.83;;;10.80;1.00;;;;;;6270507;22;20360;-66
2023/10/07 00:22:42;;;;;;;12.05;3.08;;;10.70;1.00;;;;;;6243145;22;20379;-65
2023/10/07 00:25:08;;;;;;;9.85;3.03;;;10.70;1.00;;;;;;6271232;22;20360;-65
2023/10/07 00:27:42;;;;;;;9.03;2.50;;;10.80;1.00;;;;;;6270518;22;20697;-65
2023/10/07 00:30:15;;;;;;;9.35;2.92;;;10.80;1.00;;;;;;6270172;22;20395;-65
2023/10/07 00:32:41;;;;;;;8.55;2.95;;;10.90;1.00;;;;;;6270744;22;20744;-65
2023/10/07 00:35:07;;;;;;;6.53;2.88;;;11.00;1.00;;;;;;6270302;22;20364;-65
2023/10/07 00:37:44;;;;;;;9.35;2.92;;;10.90;1.00;;;;;;6270965;22;20666;-65
2023/10/07 00:42:55;;;;;;;7.50;2.97;;;10.90;1.00;;;;;;6270483;22;20835;-65
2023/10/07 00:45:24;;;;;;;10.18;3.50;;;10.80;1.00;;;;;;6271100;22;20443;-65
2023/10/07 00:47:52;;;;;;;7.13;2.47;;;10.80;1.00;;;;;;6271798;22;20394;-66
2023/10/07 00:50:20;;;;;;;9.00;3.20;;;10.90;1.00;;;;;;6271584;22;20392;-65
2023/10/07 00:55:29;;;;;;;9.13;2.60;;;11.00;99.90;;;;;;6275620;22;20373;-64
2023/10/07 00:58:29;;;;;;;10.80;2.83;;;11.00;99.90;;;;;;6270905;22;20693;-64
2023/10/07 01:00:48;;;;;;;10.20;3.05;;;11.10;99.90;;;;;;6265570;22;20371;-65
2023/10/07 01:06:25;;;;;;;7.07;2.20;;;11.10;99.90;;;;;;6271195;22;20360;-65
2023/10/07 01:09:14;;;;;;;12.27;3.50;;;11.10;99.90;;;;;;6262674;22;20391;-65
2023/10/07 01:11:23;;;;;;;6.95;2.45;;;11.10;99.90;;;;;;6254474;22;21472;-65
2023/10/07 01:13:50;;;;;;;8.38;2.90;;;11.10;99.90;;;;;;6271047;22;20371;-65
2023/10/07 01:21:40;;;;;;;14.35;2.78;;;10.90;99.90;;;;;;6278399;22;20368;-65
2023/10/07 01:24:06;;;;;;;7.18;2.58;;;10.70;99.90;;;;;;6270732;22;20519;-65
2023/10/07 01:26:33;;;;;;;7.60;2.80;;;10.70;99.90;;;;;;6270572;22;20367;-65
2023/10/07 01:29:12;;;;;;;12.85;3.63;;;10.60;99.90;;;;;;6269380;22;20379;-64
2023/10/07 01:31:59;;;;;;;13.83;2.70;;;10.50;99.90;;;;;;6270338;22;20348;-65
2023/10/07 01:34:35;;;;;;;9.20;3.40;;;10.60;99.90;;;;;;6270506;22;20446;-64
2023/10/07 01:37:05;;;;;;;10.52;3.03;;;10.60;99.90;;;;;;6269968;22;20359;-65
2023/10/07 01:39:40;;;;;;;11.10;3.28;;;10.60;99.90;;;;;;6270461;22;20360;-65
2023/10/07 01:42:21;;;;;;;11.02;3.55;;;10.60;99.90;;;;;;6269880;22;20360;-65
2023/10/07 01:44:49;;;;;;;11.23;2.90;;;10.60;99.90;;;;;;6243167;22;20836;-65
2023/10/07 01:47:23;;;;;;;11.43;3.08;;;10.60;99.90;;;;;;6271624;22;20370;-65
2023/10/07 01:49:53;;;;;;;10.25;2.28;;;10.50;99.90;;;;;;6271930;22;20479;-65
2023/10/07 01:52:26;;;;;;;9.15;2.47;;;10.50;99.90;;;;;;6272055;22;20356;-65
2023/10/07 01:54:55;;;;;;;9.80;2.63;;;10.60;99.90;;;;;;6269895;22;20357;-65
2023/10/07 01:57:21;;;;;;;7.35;2.15;;;10.40;99.90;;;;;;6272150;22;20372;-65
2023/10/07 01:59:47;;;;;;;9.50;2.50;;;10.40;99.90;;;;;;6271711;22;20689;-65
2023/10/07 02:02:14;;;;;;;9.55;3.00;;;10.40;99.90;;;;;;6271412;22;20439;-65
2023/10/07 02:04:40;;;;;;;11.80;2.60;;;10.50;99.90;;;;;;6271888;22;20348;-65
2023/10/07 02:07:05;;;;;;;6.33;2.13;;;10.40;99.90;;;;;;6271408;22;20902;-65
2023/10/07 02:09:40;;;;;;;8.90;3.38;;;10.40;99.90;;;;;;6271265;22;20385;-65
2023/10/07 02:12:10;;;;;;;8.98;3.08;;;10.40;99.90;;;;;;6271292;22;20439;-65
2023/10/07 02:14:37;;;;;;;7.60;3.00;;;10.40;99.90;;;;;;6271519;22;20356;-65
2023/10/07 02:17:03;;;;;;;9.50;2.63;;;10.40;99.90;;;;;;6270847;22;20459;-65
2023/10/07 02:19:29;;;;;;;7.30;2.53;;;10.30;99.90;;;;;;6271173;22;20395;-65
2023/10/07 02:21:59;;;;;;;6.70;2.55;;;10.20;99.90;;;;;;6271439;22;20375;-65
2023/10/07 02:24:34;;;;;;;9.95;3.25;;;10.20;99.90;;;;;;6271404;22;20356;-65
2023/10/07 02:27:17;;;;;;;7.03;2.78;;;10.10;99.90;;;;;;6271185;22;20435;-65
2023/10/07 02:29:44;;;;;;;10.95;2.60;;;10.10;99.90;;;;;;6271471;22;20391;-65
2023/10/07 02:32:14;;;;;;;7.57;2.20;;;10.10;99.90;;;;;;6271846;22;20482;-65
2023/10/07 02:34:51;;;;;;;6.00;2.42;;;10.00;99.90;;;;;;6271422;22;20392;-65
2023/10/07 02:37:21;;;;;;;10.00;2.93;;;10.00;99.90;;;;;;6271418;22;20842;-65
2023/10/07 02:39:47;;;;;;;9.20;2.27;;;10.20;99.90;;;;;;6270810;22;20360;-65
2023/10/07 02:42:21;;;;;;;9.13;3.13;;;10.20;99.90;;;;;;6271228;22;20389;-65
2023/10/07 02:44:54;;;;;;;7.97;3.00;;;10.30;99.90;;;;;;6271978;22;20463;-65
2023/10/07 02:47:20;;;;;;;7.45;2.40;;;10.30;99.90;;;;;;6272147;22;20396;-65
2023/10/07 02:49:49;;;;;;;8.10;2.60;;;10.40;99.90;;;;;;6271346;22;20442;-65
2023/10/07 02:52:17;;;;;;;7.25;2.00;;;10.40;99.90;;;;;;6271562;22;20364;-65
2023/10/07 02:54:43;;;;;;;8.40;2.80;;;10.30;99.90;;;;;;6270475;22;20360;-66
2023/10/07 02:57:21;;;;;;;14.05;3.50;;;10.30;99.90;;;;;;6270697;22;20897;-65
2023/10/07 03:00:00;;;;;;;9.32;2.55;;;10.30;99.90;;;;;;6271319;22;20367;-65
2023/10/07 03:02:37;;;;;;;9.73;3.28;;;10.30;99.90;;;;;;6271266;22;20363;-65
2023/10/07 03:07:41;;;;;;;7.93;2.90;;;10.20;85.60;;;;;;6277967;22;20365;-65
2023/10/07 03:10:16;;;;;;;7.85;2.50;;;10.10;12.60;;;;;;6271045;22;20384;-65
2023/10/07 03:12:47;;;;;;;10.70;3.10;;;10.10;99.90;;;;;;6271281;22;21290;-65
2023/10/07 03:16:09;;;;;;;7.80;2.53;;;10.10;88.10;;;;;;6243328;22;20376;-65
2023/10/07 03:18:21;;;;;;;8.52;3.05;;;10.00;99.90;;;;;;6245971;22;20371;-65
2023/10/07 03:21:00;;;;;;;8.70;2.95;;;9.90;99.90;;;;;;6270226;22;20406;-65
2023/10/07 03:23:26;;;;;;;7.57;2.50;;;9.80;99.90;;;;;;6271038;22;20360;-65
2023/10/07 03:28:36;;;;;;;9.95;2.90;;;10.00;99.90;;;;;;6275018;22;20369;-66
2023/10/07 03:31:12;;;;;;;7.97;2.28;;;10.00;91.60;;;;;;6243581;22;20404;-65
2023/10/07 03:33:53;;;;;;;10.23;4.07;;;10.00;93.60;;;;;;6270843;22;20360;-65
2023/10/07 03:41:55;;;;;;;7.10;2.35;;;10.00;84.30;;;;;;6148129;23;20378;-65
2023/10/07 03:44:23;;;;;;;9.93;2.55;;;10.00;21.40;;;;;;6248849;22;20383;-66
2023/10/07 03:46:54;;;;;;;10.40;2.22;;;9.90;50.00;;;;;;6271325;22;20438;-65
2023/10/07 03:49:21;;;;;;;8.25;2.90;;;9.80;99.90;;;;;;6271552;22;20427;-65
2023/10/07 03:51:48;;;;;;;9.73;2.88;;;9.70;99.90;;;;;;6270797;22;20370;-65
2023/10/07 03:54:24;;;;;;;10.48;3.13;;;9.70;99.90;;;;;;6270034;22;20356;-65
2023/10/07 03:56:51;;;;;;;9.88;3.00;;;9.60;99.90;;;;;;6271519;22;20454;-65
2023/10/07 03:59:17;;;;;;;8.35;2.67;;;9.60;99.90;;;;;;6270768;22;20356;-65
2023/10/07 04:01:42;;;;;;;9.38;2.53;;;9.60;99.90;;;;;;6271014;22;20390;-65
2023/10/07 04:04:11;;;;;;;8.63;2.80;;;9.50;99.90;;;;;;6270818;22;20367;-65
2023/10/07 04:06:38;;;;;;;10.60;3.05;;;9.50;1.00;;;;;;6270853;22;20684;-65
2023/10/07 04:09:07;;;;;;;10.02;3.28;;;9.30;1.00;;;;;;6270780;22;20747;-65
2023/10/07 04:11:36;;;;;;;6.72;2.72;;;9.30;1.00;;;;;;6270974;22;20360;-65
2023/10/07 04:14:22;;;;;;;13.00;2.80;;;9.30;1.00;;;;;;6270445;22;20387;-65
2023/10/07 04:16:52;;;;;;;9.30;3.10;;;9.30;1.00;;;;;;6271119;22;20384;-65
2023/10/07 04:21:44;;;;;;;8.25;2.40;;;9.20;1.00;;;;;;6271584;22;20813;-65
2023/10/07 04:24:11;;;;;;;8.30;2.67;;;9.30;1.00;;;;;;6243337;22;20693;-65
2023/10/07 04:26:40;;;;;;;9.95;3.47;;;9.40;1.00;;;;;;6270598;22;20371;-65
2023/10/07 04:29:15;;;;;;;7.03;2.70;;;9.50;1.00;;;;;;6270990;22;20384;-65
2023/10/07 04:31:51;;;;;;;6.70;2.70;;;9.50;1.00;;;;;;6270972;22;20360;-65
2023/10/07 04:34:20;;;;;;;11.32;3.20;;;9.50;1.00;;;;;;6270917;22;20518;-65
2023/10/07 04:39:27;;;;;;;9.90;3.90;;;9.30;1.00;;;;;;6280024;22;20811;-65
2023/10/07 04:42:04;;;;;;;10.13;2.70;;;9.30;1.00;;;;;;6271187;22;20356;-65
2023/10/07 04:47:20;;;;;;;14.75;2.80;;;9.40;1.00;;;;;;6275959;22;20908;-65
2023/10/07 04:49:56;;;;;;;10.93;3.00;;;9.30;1.00;;;;;;6270641;22;20388;-66
2023/10/07 04:52:28;;;;;;;8.02;2.65;;;9.40;1.00;;;;;;6271241;22;20376;-66
2023/10/07 04:54:54;;;;;;;8.90;2.60;;;9.40;1.00;;;;;;6271228;22;20387;-66
2023/10/07 04:57:43;;;;;;;12.55;3.70;;;9.50;1.00;;;;;;6272502;22;20448;-66
2023/10/07 05:00:17;;;;;;;8.30;3.00;;;9.50;1.00;;;;;;6271176;22;20360;-66
2023/10/07 05:02:43;;;;;;;9.05;2.90;;;9.60;1.00;;;;;;6271382;22;20447;-65
2023/10/07 05:05:13;;;;;;;9.20;2.35;;;9.60;1.00;;;;;;6270963;22;20365;-65
2023/10/07 05:07:39;;;;;;;7.00;2.42;;;9.50;1.00;;;;;;6270347;22;20435;-65
2023/10/07 05:10:08;;;;;;;7.93;2.63;;;9.50;1.00;;;;;;6270953;22;20876;-65
2023/10/07 05:12:34;;;;;;;10.80;2.60;;;9.50;1.00;;;;;;6270931;22;20360;-67
2023/10/07 05:15:00;;;;;;;15.38;3.33;;;9.50;1.00;;;;;;6270926;22;20363;-65
2023/10/07 05:17:28;;;;;;;10.27;3.40;;;9.50;1.00;;;;;;6270111;22;20360;-65
2023/10/07 05:19:56;;;;;;;8.35;2.55;;;9.50;1.00;;;;;;6243043;22;20429;-66
2023/10/07 05:22:23;;;;;;;6.75;2.20;;;9.50;1.00;;;;;;6272114;22;20824;-66
2023/10/07 05:24:55;;;;;;;11.33;4.00;;;9.50;1.00;;;;;;6245479;22;20392;-66
2023/10/07 05:27:21;;;;;;;7.65;2.50;;;9.60;1.00;;;;;;6272062;22;20375;-66
2023/10/07 05:29:46;;;;;;;9.60;3.50;;;9.60;1.00;;;;;;6271610;22;20380;-66
2023/10/07 05:32:13;;;;;;;9.52;3.20;;;9.50;1.00;;;;;;6272196;22;20417;-66
2023/10/07 05:34:38;;;;;;;9.25;3.50;;;9.50;1.00;;;;;;6272292;22;20355;-65
2023/10/07 05:37:10;;;;;;;6.97;2.92;;;9.40;1.00;;;;;;6271023;22;20402;-65
2023/10/07 05:39:38;;;;;;;8.90;3.47;;;9.50;1.00;;;;;;6270987;22;20429;-65
2023/10/07 05:42:05;;;;;;;8.27;3.00;;;9.50;1.00;;;;;;6270295;22;20396;-65
2023/10/07 05:44:31;;;;;;;7.95;3.22;;;9.50;1.00;;;;;;6271242;22;20477;-65
2023/10/07 05:46:59;;;;;;;10.63;3.40;;;9.40;1.00;;;;;;6271504;22;20473;-65
2023/10/07 05:49:24;;;;;;;7.25;2.25;;;9.40;1.00;;;;;;6270086;22;20390;-66
2023/10/07 05:51:50;;;;;;;8.15;2.95;;;9.40;1.00;;;;;;6271579;22;20391;-66
2023/10/07 05:54:18;;;;;;;7.78;3.42;;;9.50;1.00;;;;;;6271176;22;20364;-66
2023/10/07 05:56:47;;;;;;;8.07;2.72;;;9.60;1.00;;;;;;6270743;22;20348;-65
2023/10/07 05:59:13;;;;;;;7.65;2.33;;;9.80;1.00;;;;;;6271167;22;20824;-66
2023/10/07 06:01:38;;;;;;;17.10;3.30;;;9.90;1.00;;;;;;6271356;22;20371;-66
2023/10/07 06:04:07;;;;;;;8.60;3.50;;;10.10;1.00;;;;;;6270105;22;20368;-66
2023/10/07 06:06:33;;;;;;;12.83;3.40;;;10.60;1.00;;;;;;6268730;22;20467;-66
2023/10/07 06:09:02;;;;;;;9.20;3.25;;;11.40;1.00;;;;;;6269686;22;20367;-65
2023/10/07 06:11:29;;;;;;;12.05;3.50;;;12.40;99.90;;;;;;6271214;22;20402;-66
2023/10/07 06:13:55;;;;;;;9.83;3.53;;;13.30;99.90;;;;;;6270908;22;20363;-66
2023/10/07 06:16:20;;;;;;;11.63;3.30;;;14.10;99.90;;;;;;6271642;22;20416;-65
2023/10/07 06:18:46;;;;;;;10.15;3.35;;;14.70;99.90;;;;;;6270697;22;20903;-66
2023/10/07 06:21:19;;;;;;;9.88;3.78;;;15.30;1.00;;;;;;6243366;22;20767;-66
2023/10/07 06:23:48;;;;;;;9.13;3.28;;;16.00;1.00;;;;;;6270945;22;20855;-66
2023/10/07 06:26:15;;;;;;;10.00;3.38;;;16.60;1.00;;;;;;6271193;22;20364;-66
2023/10/07 06:28:45;;;;;;;9.95;2.83;;;17.20;1.00;;;;;;6271281;22;20359;-66
2023/10/07 06:31:12;;;;;;;11.57;3.30;;;17.50;1.00;;;;;;6271195;22;20355;-65
2023/10/07 06:33:42;;;;;;;9.47;3.43;;;18.10;1.00;;;;;;6271023;22;20365;-66
2023/10/07 06:36:10;;;;;;;10.00;2.72;;;18.80;99.90;;;;;;6270984;22;20352;-66
2023/10/07 06:38:45;;;;;;;9.25;2.72;;;19.10;99.90;;;;;;6270738;22;20353;-66
2023/10/07 06:41:12;;;;;;;9.38;3.25;;;19.50;99.90;;;;;;6271602;22;20361;-67
2023/10/07 06:43:41;;;;;;;8.38;2.50;;;19.70;99.90;;;;;;6272288;22;20427;-66
2023/10/07 06:46:11;;;;;;;9.10;2.65;;;20.50;99.90;;;;;;6271729;22;20450;-67
2023/10/07 06:48:40;;;;;;;7.80;2.67;;;21.00;99.90;;;;;;6219839;22;20387;-67
2023/10/07 06:51:06;;;;;;;10.02;3.72;;;22.10;99.90;;;;;;6273016;22;20418;-67
2023/10/07 06:53:35;;;;;;;8.30;2.92;;;22.50;99.90;;;;;;6272373;22;20447;-67
2023/10/07 06:56:01;;;;;;;9.88;2.67;;;22.30;99.90;;;;;;6244713;22;20376;-67
2023/10/07 06:58:27;;;;;;;10.50;3.20;;;22.90;99.90;;;;;;6271685;22;20833;-67
2023/10/07 07:00:59;;;;;;;8.38;2.45;;;23.30;99.90;;;;;;6272105;22;20356;-66
2023/10/07 07:03:25;;;;;;;8.23;2.90;;;23.10;99.90;;;;;;6270521;22;20349;-67
2023/10/07 07:05:52;;;;;;;13.77;3.10;;;22.90;99.90;;;;;;6272872;22;20697;-66
2023/10/07 07:08:22;;;;;;;9.65;3.80;;;23.00;99.90;;;;;;6273095;22;20443;-67
2023/10/07 07:10:55;;;;;;;9.35;3.03;;;22.60;99.90;;;;;;6272348;22;20455;-67
2023/10/07 07:13:27;;;;;;;8.20;2.30;;;21.50;99.90;;;;;;6271484;22;20418;-67
2023/10/07 07:16:06;;;;;;;11.50;3.28;;;21.30;99.90;;;;;;6270782;22;20868;-66
2023/10/07 07:18:32;;;;;;;8.15;2.78;;;21.60;99.90;;;;;;6271342;22;20377;-68
2023/10/07 07:21:01;;;;;;;10.50;3.00;;;22.10;99.90;;;;;;6273351;22;20647;-67
2023/10/07 07:23:35;;;;;;;9.77;3.00;;;22.20;99.90;;;;;;6245836;22;20380;-66
2023/10/07 07:28:27;;;;;;;9.10;2.35;;;22.40;99.90;;;;;;6273157;22;20410;-67
2023/10/07 07:30:57;;;;;;;9.90;2.95;;;21.50;99.90;;;;;;6272747;22;20455;-67
2023/10/07 07:33:29;;;;;;;12.52;3.05;;;20.10;99.90;;;;;;6245709;22;20440;-67
2023/10/07 07:35:58;;;;;;;8.30;3.10;;;19.40;99.90;;;;;;6245639;22;20360;-67
2023/10/07 07:38:30;;;;;;;8.40;2.57;;;;;;;;;;6271603;22;20812;-66
2023/10/07 07:41:07;;;;;;;7.95;2.20;;;21.80;99.90;;;;;;6272757;22;20435;-68
2023/10/07 07:43:37;;;;;;;8.70;2.30;;;23.20;99.90;;;;;;6272187;22;20344;-69
2023/10/07 07:48:43;;;;;;;11.43;3.00;;;25.00;99.90;;;;;;6279699;22;20430;-69
2023/10/07 07:51:09;;;;;;;8.73;2.70;;;25.60;99.90;;;;;;6272520;22;20376;-69
2023/10/07 07:53:35;;;;;;;7.07;1.80;;;26.00;99.90;;;;;;6245712;22;20369;-69
2023/10/07 07:56:02;;;;;;;8.90;2.13;;;26.70;99.90;;;;;;6272258;22;20429;-69
2023/10/07 07:58:30;;;;;;;9.63;2.30;;;26.60;99.90;;;;;;6276101;22;20443;-69
2023/10/07 08:00:58;;;;;;;7.95;2.25;;;27.20;99.90;;;;;;6273898;22;20352;-69
2023/10/07 08:03:27;;;;;;;8.30;1.83;;;27.60;99.90;;;;;;6272653;22;20753;-69
2023/10/07 08:05:56;;;;;;;9.02;2.05;;;25.50;99.90;;;;;;6273277;22;20801;-69
2023/10/07 08:08:24;;;;;;;6.40;2.10;;;24.30;99.90;;;;;;6273355;22;20368;-69
2023/10/07 08:10:54;;;;;;;8.48;2.40;;;23.50;99.90;;;;;;6272969;22;20844;-68
2023/10/07 08:13:27;;;;;;;8.20;1.90;;;22.50;99.90;;;;;;6273372;22;20376;-68
2023/10/07 08:15:54;;;;;;;7.70;2.08;;;22.00;99.90;;;;;;6272301;22;20360;-67
2023/10/07 08:18:28;;;;;;;10.32;3.22;;;21.60;99.90;;;;;;6272357;22;20386;-68
2023/10/07 08:21:07;;;;;;;7.78;2.33;;;21.20;99.90;;;;;;6246221;22;20884;-68
2023/10/07 08:23:51;;;;;;;12.82;2.50;;;21.10;99.90;;;;;;6244627;22;20406;-68
2023/10/07 08:26:23;;;;;;;8.30;2.80;;;20.80;99.90;;;;;;6272795;22;20399;-68
2023/10/07 08:28:59;;;;;;;8.43;2.15;;;20.80;99.90;;;;;;6273943;22;20360;-67
2023/10/07 08:31:38;;;;;;;8.77;2.47;;;21.10;99.90;;;;;;6272599;22;20843;-68
2023/10/07 08:36:36;;;;;;;7.97;1.95;;;23.90;99.90;;;;;;6272805;22;20403;-68
2023/10/07 08:39:06;;;;;;;9.85;3.30;;;23.50;99.90;;;;;;6245686;22;20669;-68
2023/10/07 08:41:31;;;;;;;9.53;2.20;;;22.40;99.90;;;;;;6274609;22;20365;-68
2023/10/07 08:44:15;;;;;;;7.45;2.00;;;21.90;99.90;;;;;;6248592;22;20367;-68
2023/10/07 08:47:02;;;;;;;6.47;1.85;;;21.70;99.90;;;;;;6273239;22;20368;-68
2023/10/07 08:49:28;;;;;;;6.65;2.35;;;21.30;99.90;;;;;;6272844;22;20376;-68
2023/10/07 08:51:56;;;;;;;9.95;2.40;;;20.90;99.90;;;;;;6274789;22;20348;-68
2023/10/07 08:54:31;;;;;;;9.00;1.80;;;20.60;99.90;;;;;;6273744;22;20373;-69
2023/10/07 08:56:58;;;;;;;6.80;1.90;;;20.50;99.90;;;;;;6272779;22;20364;-68
2023/10/07 08:59:30;;;;;;;8.80;2.40;;;20.60;99.90;;;;;;6271798;22;20360;-68
2023/10/07 09:02:03;;;;;;;10.25;2.53;;;20.40;99.90;;;;;;6273086;22;20363;-68
2023/10/07 09:04:33;;;;;;;6.57;1.70;;;20.10;99.90;;;;;;6272700;22;20352;-69
2023/10/07 09:07:11;;;;;;;7.78;2.45;;;20.00;99.90;;;;;;6272947;22;20370;-69
2023/10/07 09:09:38;;;;;;;7.63;2.00;;;19.80;99.90;;;;;;6274132;22;20380;-69
2023/10/07 09:12:14;;;;;;;8.45;2.60;;;19.60;99.90;;;;;;6286544;22;20797;-68
2023/10/07 09:14:41;;;;;;;8.95;2.28;;;19.60;99.90;;;;;;6289362;22;20360;-67
2023/10/07 09:17:09;;;;;;;6.40;1.90;;;19.60;99.90;;;;;;6287755;22;20370;-68
2023/10/07 09:19:36;;;;;;;7.15;2.30;;;19.60;99.90;;;;;;6278735;22;20352;-68
2023/10/07 09:22:10;;;;;;;7.57;2.13;;;19.50;99.90;;;;;;6276333;22;20357;-68
2023/10/07 09:24:41;;;;;;;8.00;2.33;;;19.40;99.90;;;;;;6277365;22;20402;-68
2023/10/07 09:27:13;;;;;;;7.43;2.50;;;19.60;99.90;;;;;;6277460;22;20352;-68
2023/10/07 09:29:39;;;;;;;8.63;2.70;;;19.60;99.90;;;;;;6276781;22;20388;-68
2023/10/07 09:32:06;;;;;;;7.30;2.40;;;19.60;99.90;;;;;;6277487;22;20352;-68
2023/10/07 09:34:47;;;;;;;7.53;2.53;;;19.60;99.90;;;;;;6276522;22;20374;-68
2023/10/07 09:37:21;;;;;;;11.00;2.80;;;19.40;99.90;;;;;;6278043;22;20368;-68
2023/10/07 09:39:54;;;;;;;8.02;3.03;;;19.20;99.90;;;;;;6277915;22;20492;-69
2023/10/07 09:42:26;;;;;;;7.75;2.80;;;19.10;99.90;;;;;;6277713;22;20360;-68
2023/10/07 09:44:55;;;;;;;7.70;2.10;;;19.00;99.90;;;;;;6254953;22;20375;-68
2023/10/07 09:47:22;;;;;;;7.70;2.58;;;19.00;99.90;;;;;;6275064;22;20392;-68
2023/10/07 09:49:50;;;;;;;7.77;2.50;;;19.00;99.90;;;;;;6274897;22;20391;-68
2023/10/07 09:52:27;;;;;;;7.45;2.33;;;19.10;99.90;;;;;;6273614;22;20356;-68
2023/10/07 09:55:22;;;;;;;8.00;2.40;;;19.30;99.90;;;;;;6273328;22;20463;-68
2023/10/07 09:58:09;;;;;;;7.10;2.22;;;19.50;99.90;;;;;;6272924;22;20388;-68
2023/10/07 10:01:05;;;;;;;8.73;2.20;;;19.80;99.90;;;;;;6273207;22;20383;-68
2023/10/07 10:03:42;;;;;;;7.25;2.20;;;20.10;99.90;;;;;;6273102;22;20798;-68
2023/10/07 10:06:40;;;;;;;7.07;2.20;;;20.30;99.90;;;;;;6272702;22;20344;-68
2023/10/07 10:09:13;;;;;;;8.82;2.30;;;20.40;99.90;;;;;;6211856;22;20364;-68
2023/10/07 10:16:48;;;;;;;8.98;2.03;;;20.90;99.90;;;;;;6272970;22;20352;-68
2023/10/07 10:19:44;;;;;;;7.15;1.80;;;21.00;99.90;;;;;;6273448;22;20356;-68
2023/10/07 10:22:12;;;;;;;7.43;2.20;;;20.90;99.90;;;;;;6272903;22;20360;-68
2023/10/07 10:24:43;;;;;;;6.75;2.15;;;20.80;99.90;;;;;;6246233;22;20697;-68
2023/10/07 10:27:13;;;;;;;7.57;2.00;;;20.60;99.90;;;;;;6272217;22;20422;-68
2023/10/07 10:29:55;;;;;;;9.82;1.92;;;20.60;99.90;;;;;;6272378;22;20612;-68
2023/10/07 10:32:28;;;;;;;6.78;2.05;;;20.70;99.90;;;;;;6273451;22;20732;-68
2023/10/07 10:34:55;;;;;;;10.05;2.33;;;20.80;99.90;;;;;;6272593;22;20370;-68
2023/10/07 10:37:26;;;;;;;6.10;1.75;;;20.80;99.90;;;;;;6273866;22;20410;-68
2023/10/07 10:39:53;;;;;;;7.27;1.73;;;21.20;99.90;;;;;;6273961;22;20370;-68
2023/10/07 10:42:20;;;;;;;6.72;2.30;;;21.60;99.90;;;;;;6274194;22;20345;-68
2023/10/07 10:44:48;;;;;;;6.35;1.70;;;22.20;99.90;;;;;;6272931;22;20368;-68
2023/10/07 10:47:22;;;;;;;7.60;1.80;;;22.30;99.90;;;;;;6272905;22;20447;-69
2023/10/07 10:49:54;;;;;;;6.60;2.10;;;22.20;99.90;;;;;;6273359;22;20467;-68
2023/10/07 10:52:20;;;;;;;6.40;1.60;;;22.00;99.90;;;;;;6273074;22;20376;-68
2023/10/07 10:54:45;;;;;;;9.83;2.20;;;21.90;99.90;;;;;;6271799;22;20368;-68
2023/10/07 10:57:14;;;;;;;6.67;1.80;;;21.70;99.90;;;;;;6271949;22;20464;-68
2023/10/07 10:59:43;;;;;;;5.70;1.50;;;21.70;99.90;;;;;;6245333;22;20391;-68
2023/10/07 11:02:17;;;;;;;6.53;1.50;;;21.40;99.90;;;;;;6272435;22;20430;-68
2023/10/07 11:04:45;;;;;;;7.57;1.70;;;21.10;99.90;;;;;;6272205;22;20422;-68
2023/10/07 11:07:12;;;;;;;6.82;1.30;;;21.20;99.90;;;;;;6272062;22;20356;-68
2023/10/07 11:09:38;;;;;;;7.10;1.58;;;21.20;99.90;;;;;;6271710;22;20380;-68
2023/10/07 11:12:16;;;;;;;6.63;1.75;;;21.30;99.90;;;;;;6272154;22;20388;-68
2023/10/07 11:14:43;;;;;;;6.40;1.70;;;21.30;99.90;;;;;;6272687;22;20391;-68
2023/10/07 11:17:09;;;;;;;8.43;2.03;;;21.60;99.90;;;;;;6271939;22;20451;-68
2023/10/07 11:19:48;;;;;;;6.38;1.70;;;21.70;99.90;;;;;;6271673;22;20426;-68
2023/10/07 11:22:18;;;;;;;8.45;1.92;;;21.60;99.90;;;;;;6271981;22;20816;-68
2023/10/07 11:24:46;;;;;;;6.32;1.50;;;21.50;99.90;;;;;;6271715;22;20360;-68
2023/10/07 11:27:13;;;;;;;7.78;1.60;;;21.20;99.90;;;;;;6271934;22;20348;-68
2023/10/07 11:29:40;;;;;;;7.10;1.53;;;21.10;99.90;;;;;;6272158;22;20800;-68
2023/10/07 11:32:07;;;;;;;8.90;1.80;;;21.10;99.90;;;;;;6271899;22;20433;-68
2023/10/07 11:34:41;;;;;;;7.03;1.80;;;21.10;99.90;;;;;;6271686;22;20356;-68
2023/10/07 11:37:14;;;;;;;6.28;1.77;;;21.00;99.90;;;;;;6271911;22;20362;-68
2023/10/07 11:39:46;;;;;;;8.52;2.08;;;20.90;99.90;;;;;;6271772;22;20353;-68
2023/10/07 11:42:20;;;;;;;6.60;1.90;;;20.80;99.90;;;;;;6272412;22;20364;-68
2023/10/07 11:44:52;;;;;;;6.38;1.80;;;20.80;99.90;;;;;;6271482;22;20356;-68
2023/10/07 11:47:18;;;;;;;6.10;1.70;;;20.80;99.90;;;;;;6272176;22;20368;-68
2023/10/07 11:49:47;;;;;;;6.15;1.45;;;21.00;99.90;;;;;;6271332;22;20855;-68
2023/10/07 11:52:19;;;;;;;6.78;1.50;;;21.30;99.90;;;;;;6271370;22;20403;-68
2023/10/07 11:54:45;;;;;;;7.40;1.40;;;21.60;99.90;;;;;;6271876;22;20410;-68
2023/10/07 11:57:11;;;;;;;6.57;1.50;;;21.50;99.90;;;;;;6272161;22;20732;-67
2023/10/07 11:59:41;;;;;;;5.90;1.30;;;21.40;99.90;;;;;;6271870;22;20368;-69
2023/10/07 12:02:11;;;;;;;7.38;1.65;;;21.40;99.90;;;;;;6272312;22;20447;-68
2023/10/07 12:04:46;;;;;;;6.50;1.80;;;21.50;99.90;;;;;;6271888;22;20367;-68
2023/10/07 12:07:14;;;;;;;8.52;1.60;;;21.30;99.90;;;;;;6271763;22;20364;-68
2023/10/07 12:09:41;;;;;;;7.15;1.67;;;21.50;99.90;;;;;;6271427;22;20514;-69
2023/10/07 12:12:09;;;;;;;5.85;1.70;;;21.70;99.90;;;;;;6244602;22;20361;-69
2023/10/07 12:14:36;;;;;;;7.25;1.80;;;21.60;99.90;;;;;;6271551;22;20388;-67
2023/10/07 12:17:03;;;;;;;7.10;1.80;;;21.50;99.90;;;;;;6271069;22;20367;-67
2023/10/07 12:19:30;;;;;;;7.40;1.60;;;21.50;99.90;;;;;;6271479;22;20435;-68
2023/10/07 12:21:56;;;;;;;5.60;1.40;;;21.60;99.90;;;;;;6271282;22;20439;-68
2023/10/07 12:24:22;;;;;;;6.88;1.40;;;21.70;99.90;;;;;;6272335;22;20395;-68
2023/10/07 12:26:50;;;;;;;6.55;1.33;;;21.60;99.90;;;;;;6271630;22;20657;-68
2023/10/07 12:29:18;;;;;;;7.43;1.50;;;21.30;99.90;;;;;;6271554;22;20388;-68
2023/10/07 12:31:47;;;;;;;7.60;1.70;;;21.40;99.90;;;;;;6271877;22;20363;-68
2023/10/07 12:34:16;;;;;;;6.50;1.40;;;21.50;99.90;;;;;;6271817;22;20367;-68
2023/10/07 12:36:42;;;;;;;6.88;1.55;;;21.50;99.90;;;;;;6271517;22;20364;-68
2023/10/07 12:39:11;;;;;;;6.35;1.90;;;21.50;99.90;;;;;;6271721;22;20364;-68
2023/10/07 12:41:38;;;;;;;6.78;1.98;;;21.70;99.90;;;;;;6271410;22;20446;-68
2023/10/07 12:44:08;;;;;;;7.13;1.90;;;22.00;99.90;;;;;;6271451;22;20364;-68
2023/10/07 12:46:37;;;;;;;7.22;2.08;;;22.00;99.90;;;;;;6271974;22;20356;-68
2023/10/07 12:49:09;;;;;;;8.10;1.63;;;22.10;99.90;;;;;;6272048;22;20352;-69
2023/10/07 12:51:36;;;;;;;6.50;1.70;;;22.30;99.90;;;;;;6271770;22;20435;-68
2023/10/07 12:54:03;;;;;;;9.48;2.20;;;22.50;99.90;;;;;;6271915;22;20427;-69
2023/10/07 12:56:31;;;;;;;6.18;1.50;;;22.70;99.90;;;;;;6271349;22;20426;-68
2023/10/07 12:58:56;;;;;;;6.45;1.67;;;22.60;99.90;;;;;;6271425;22;20368;-68
2023/10/07 13:01:22;;;;;;;6.73;1.63;;;22.80;99.90;;;;;;6245472;22;20360;-69
2023/10/07 13:03:48;;;;;;;7.23;1.67;;;22.90;99.90;;;;;;6272023;22;20698;-69
2023/10/07 13:06:16;;;;;;;7.77;1.60;;;23.00;99.90;;;;;;6271509;22;20662;-69
2023/10/07 13:08:42;;;;;;;7.17;1.47;;;22.80;99.90;;;;;;6275780;22;20353;-68
2023/10/07 13:11:14;;;;;;;6.60;1.80;;;22.90;99.90;;;;;;6271082;22;20388;-68
2023/10/07 13:13:46;;;;;;;6.35;1.55;;;22.90;99.90;;;;;;6271067;22;20368;-68
2023/10/07 13:16:13;;;;;;;9.00;1.90;;;23.00;99.90;;;;;;6271419;22;20417;-69
2023/10/07 13:18:43;;;;;;;7.53;1.55;;;23.00;99.90;;;;;;6271569;22;20356;-69
2023/10/07 13:21:18;;;;;;;7.53;1.65;;;23.20;99.90;;;;;;6270982;22;20681;-69
2023/10/07 13:23:45;;;;;;;7.20;2.10;;;23.30;99.90;;;;;;6271054;22;20356;-69
2023/10/07 13:26:11;;;;;;;7.05;2.10;;;23.30;99.90;;;;;;6243680;22;21065;-69
2023/10/07 13:28:38;;;;;;;8.43;1.90;;;23.10;99.90;;;;;;6271850;22;20398;-69
2023/10/07 13:31:09;;;;;;;5.95;1.65;;;23.20;99.90;;;;;;6271203;22;20412;-69
2023/10/07 13:33:36;;;;;;;7.55;1.85;;;23.00;99.90;;;;;;6270958;22;20693;-69
2023/10/07 13:36:02;;;;;;;6.40;1.60;;;23.00;99.90;;;;;;6270713;22;20395;-69
2023/10/07 13:38:29;;;;;;;7.15;1.60;;;22.90;99.90;;;;;;6242558;22;20367;-69
2023/10/07 13:40:55;;;;;;;7.43;1.60;;;23.00;99.90;;;;;;6271259;22;20368;-69
2023/10/07 13:43:21;;;;;;;7.18;1.70;;;23.00;99.90;;;;;;6273101;22;20352;-69
2023/10/07 13:45:47;;;;;;;9.37;2.50;;;22.90;99.90;;;;;;6272234;22;20391;-69
2023/10/07 13:48:13;;;;;;;6.80;1.60;;;23.00;99.90;;;;;;6272660;22;21587;-69
2023/10/07 13:50:39;;;;;;;10.03;2.27;;;23.00;99.90;;;;;;6272864;22;20395;-69